Time;durP1;ratioP1;P1;durP2;ratioP2;P2;SDS_P1;SDS_P2;PMS_P1;PMS_P2;Temp;Humidity;BMP_temperature;BMP_pressure;BME280_temperature;BME280_humidity;BME280_pressure;Samples;Min_cycle;Max_cycle;Signal;HPM_P1;HPM_P2
2022/04/02 00:00:06;;;;;;;2.83;1.00;;;;;8.60;101420.00;;;;4978647;28;20293;-76
2022/04/02 00:02:33;;;;;;;1.40;0.98;;;;;8.60;101418.00;;;;4975384;28;20222;-75
2022/04/02 00:05:02;;;;;;;2.97;1.35;;;;;8.60;101419.00;;;;4973791;28;20205;-76
2022/04/02 00:07:29;;;;;;;2.70;0.95;;;;;8.60;101413.00;;;;4973464;28;20868;-75
2022/04/02 00:09:57;;;;;;;2.28;1.17;;;;;8.60;101412.00;;;;4969913;28;20206;-77
2022/04/02 00:12:24;;;;;;;1.83;1.23;;;;;8.60;101414.00;;;;4971361;28;20277;-76
2022/04/02 00:14:51;;;;;;;1.40;1.10;;;;;8.60;101407.00;;;;4970300;28;20206;-76
2022/04/02 00:17:19;;;;;;;1.90;1.10;;;;;8.60;101409.00;;;;4970065;28;20296;-76
2022/04/02 00:19:47;;;;;;;1.77;1.13;;;;;8.60;101419.00;;;;4971509;28;20276;-76
2022/04/02 00:22:16;;;;;;;1.20;0.80;;;;;8.60;101420.00;;;;4976951;28;21045;-76
2022/04/02 00:24:44;;;;;;;2.83;1.10;;;;;8.60;101410.00;;;;4971378;28;20253;-76
2022/04/02 00:27:11;;;;;;;1.70;0.93;;;;;8.60;101414.00;;;;4971054;28;20202;-75
2022/04/02 00:29:41;;;;;;;2.17;1.00;;;;;8.60;101409.00;;;;4970816;28;20198;-76
2022/04/02 00:32:09;;;;;;;1.63;1.10;;;;;8.50;101418.00;;;;4970758;28;20249;-75
2022/04/02 00:34:36;;;;;;;2.17;1.23;;;;;8.50;101420.00;;;;4969020;28;20853;-75
2022/04/02 00:37:04;;;;;;;2.40;1.30;;;;;8.50;101415.00;;;;4957513;28;20198;-75
2022/04/02 00:39:33;;;;;;;2.47;1.30;;;;;8.50;101412.00;;;;4974395;28;20202;-76
2022/04/02 00:42:00;;;;;;;2.30;1.00;;;;;8.50;101408.00;;;;4968302;28;20293;-76
2022/04/02 00:44:27;;;;;;;1.63;1.08;;;;;8.50;101408.00;;;;4967445;28;20206;-75
2022/04/02 00:46:56;;;;;;;2.15;0.82;;;;;8.40;101415.00;;;;4968323;28;20209;-76
2022/04/02 00:49:23;;;;;;;2.13;1.10;;;;;8.40;101417.00;;;;4969714;28;20253;-76
2022/04/02 00:51:51;;;;;;;2.58;1.15;;;;;8.40;101416.00;;;;4969960;28;20249;-75
2022/04/02 00:54:20;;;;;;;2.10;0.95;;;;;8.40;101419.00;;;;4971047;28;20205;-75
2022/04/02 00:56:49;;;;;;;1.33;0.95;;;;;8.40;101413.00;;;;4977656;28;20207;-76
2022/04/02 00:59:17;;;;;;;1.50;0.80;;;;;8.40;101411.00;;;;4970169;28;20198;-76
2022/04/02 01:01:45;;;;;;;1.60;1.05;;;;;8.40;101419.00;;;;4969578;28;20696;-76
2022/04/02 01:04:12;;;;;;;1.77;1.10;;;;;8.40;101424.00;;;;4968537;28;20194;-76
2022/04/02 01:06:42;;;;;;;1.20;0.77;;;;;8.30;101421.00;;;;4969818;28;20195;-76
2022/04/02 01:09:10;;;;;;;1.25;0.90;;;;;8.30;101423.00;;;;4969766;28;20285;-76
2022/04/02 01:11:39;;;;;;;1.60;1.02;;;;;8.30;101425.00;;;;4969360;28;20661;-76
2022/04/02 01:14:08;;;;;;;2.22;0.85;;;;;8.30;101420.00;;;;4978915;28;20201;-76
2022/04/02 01:16:36;;;;;;;1.58;0.90;;;;;8.30;101421.00;;;;4969190;28;20325;-76
2022/04/02 01:19:03;;;;;;;2.28;1.35;;;;;8.30;101421.00;;;;4969863;28;20194;-76
2022/04/02 01:21:31;;;;;;;2.20;1.60;;;;;8.30;101419.00;;;;4969029;28;20230;-75
2022/04/02 01:24:00;;;;;;;1.33;1.02;;;;;8.20;101420.00;;;;4969446;28;20198;-77
2022/04/02 01:26:28;;;;;;;1.73;1.08;;;;;8.20;101413.00;;;;4972187;28;20293;-76
2022/04/02 01:28:57;;;;;;;1.85;1.17;;;;;8.20;101424.00;;;;4973407;28;20202;-76
2022/04/02 01:31:25;;;;;;;2.17;1.10;;;;;8.20;101431.00;;;;4971275;28;20744;-76
2022/04/02 01:33:53;;;;;;;2.92;1.38;;;;;8.20;101419.00;;;;4969300;28;20677;-76
2022/04/02 01:36:21;;;;;;;2.67;0.80;;;;;8.20;101426.00;;;;4969363;28;20209;-76
2022/04/02 01:38:49;;;;;;;3.75;1.30;;;;;8.20;101422.00;;;;4969316;28;20217;-76
2022/04/02 01:41:18;;;;;;;3.75;1.40;;;;;8.10;101418.00;;;;4969919;28;20249;-76
2022/04/02 01:43:46;;;;;;;1.77;0.77;;;;;8.10;101423.00;;;;4969844;28;20657;-76
2022/04/02 01:46:14;;;;;;;1.27;1.00;;;;;8.10;101424.00;;;;4969712;28;20199;-76
2022/04/02 01:48:42;;;;;;;2.45;1.40;;;;;8.20;101424.00;;;;4977902;28;20253;-76
2022/04/02 01:51:09;;;;;;;2.00;1.13;;;;;8.10;101423.00;;;;4969714;28;20207;-76
2022/04/02 01:53:37;;;;;;;1.73;1.02;;;;;8.20;101426.00;;;;4967297;28;20194;-76
2022/04/02 01:56:05;;;;;;;2.72;1.25;;;;;8.20;101428.00;;;;4967030;28;20202;-75
2022/04/02 01:58:33;;;;;;;4.78;1.30;;;;;8.20;101429.00;;;;4966029;28;20687;-76
2022/04/02 02:01:00;;;;;;;1.80;1.10;;;;;8.20;101427.00;;;;4968661;28;20222;-76
2022/04/02 02:03:28;;;;;;;1.83;1.10;;;;;8.20;101433.00;;;;4969576;28;20221;-76
2022/04/02 02:05:55;;;;;;;1.50;0.82;;;;;8.20;101437.00;;;;4978424;28;20628;-76
2022/04/02 02:08:23;;;;;;;2.47;1.33;;;;;8.20;101436.00;;;;4968422;28;20204;-76
2022/04/02 02:10:50;;;;;;;1.65;1.00;;;;;8.20;101433.00;;;;4969294;28;20202;-75
2022/04/02 02:13:17;;;;;;;1.67;1.17;;;;;8.20;101432.00;;;;4968746;28;20665;-75
2022/04/02 02:15:46;;;;;;;1.73;0.98;;;;;8.20;101436.00;;;;4968173;28;20630;-76
2022/04/02 02:18:13;;;;;;;1.38;1.08;;;;;8.10;101439.00;;;;4967746;28;20230;-77
2022/04/02 02:20:40;;;;;;;1.65;1.02;;;;;8.10;101434.00;;;;4970678;28;21004;-76
2022/04/02 02:23:08;;;;;;;1.83;1.05;;;;;8.10;101445.00;;;;4973966;28;20210;-76
2022/04/02 02:25:36;;;;;;;1.83;1.20;;;;;8.20;101444.00;;;;4968899;28;20249;-76
2022/04/02 02:28:04;;;;;;;1.98;1.17;;;;;8.10;101444.00;;;;4970536;28;20486;-76
2022/04/02 02:30:31;;;;;;;2.28;0.93;;;;;8.20;101445.00;;;;4959967;28;20206;-76
2022/04/02 02:35:50;;;;;;;2.42;1.10;;;;;8.20;101452.00;;;;4969787;28;20195;-77
2022/04/02 02:38:19;;;;;;;1.80;1.20;;;;;8.10;101447.00;;;;4975171;28;20588;-77
2022/04/02 02:40:47;;;;;;;1.55;1.13;;;;;8.10;101455.00;;;;4973013;28;20210;-76
2022/04/02 02:43:15;;;;;;;1.73;1.33;;;;;8.10;101451.00;;;;4967691;28;20245;-77
2022/04/02 02:45:43;;;;;;;2.92;1.02;;;;;8.20;101445.00;;;;4968668;28;20284;-76
2022/04/02 02:48:12;;;;;;;2.20;1.08;;;;;8.10;101445.00;;;;4968702;28;20195;-76
2022/04/02 02:50:41;;;;;;;1.50;1.00;;;;;8.20;101450.00;;;;4963075;28;20219;-76
2022/04/02 02:53:10;;;;;;;3.05;0.80;;;;;8.20;101455.00;;;;4963555;28;20252;-76
2022/04/02 02:55:37;;;;;;;1.48;0.85;;;;;8.20;101457.00;;;;4959374;28;20724;-76
2022/04/02 02:58:05;;;;;;;1.30;0.77;;;;;8.20;101451.00;;;;4968376;28;20201;-76
2022/04/02 03:00:33;;;;;;;0.85;0.77;;;;;8.20;101449.00;;;;4968706;28;20187;-77
2022/04/02 03:03:00;;;;;;;1.70;1.17;;;;;8.20;101460.00;;;;4968628;28;20233;-76
2022/04/02 03:05:29;;;;;;;1.70;1.00;;;;;8.10;101460.00;;;;4969865;28;20261;-76
2022/04/02 03:07:56;;;;;;;1.60;0.88;;;;;8.10;101454.00;;;;4974673;28;20202;-76
2022/04/02 03:10:26;;;;;;;1.98;1.10;;;;;8.10;101449.00;;;;4971724;28;20194;-76
2022/04/02 03:12:56;;;;;;;1.20;0.93;;;;;8.10;101451.00;;;;4973254;28;20203;-76
2022/04/02 03:15:25;;;;;;;3.58;1.25;;;;;8.20;101452.00;;;;4971649;28;20194;-76
2022/04/02 03:17:53;;;;;;;2.38;0.90;;;;;8.20;101456.00;;;;4972209;28;20670;-76
2022/04/02 03:20:22;;;;;;;2.25;0.98;;;;;8.20;101455.00;;;;4972142;28;20285;-76
2022/04/02 03:22:51;;;;;;;1.83;1.25;;;;;8.20;101459.00;;;;4972271;28;20226;-76
2022/04/02 03:25:21;;;;;;;1.77;1.20;;;;;8.20;101460.00;;;;4970112;28;20194;-76
2022/04/02 03:27:50;;;;;;;1.98;1.17;;;;;8.20;101463.00;;;;4973007;28;20202;-76
2022/04/02 03:30:20;;;;;;;1.98;1.20;;;;;8.20;101461.00;;;;4973526;28;20198;-76
2022/04/02 03:32:48;;;;;;;3.00;1.52;;;;;8.20;101465.00;;;;4968434;28;20203;-76
2022/04/02 03:35:18;;;;;;;1.00;0.75;;;;;8.20;101465.00;;;;4978561;28;20193;-76
2022/04/02 03:37:47;;;;;;;1.67;1.00;;;;;8.20;101467.00;;;;4992254;28;20197;-76
2022/04/02 03:40:17;;;;;;;1.90;0.73;;;;;8.20;101460.00;;;;4991343;28;20281;-76
2022/04/02 03:42:46;;;;;;;1.50;0.93;;;;;8.20;101470.00;;;;4977993;28;20222;-76
2022/04/02 03:45:16;;;;;;;1.90;1.00;;;;;8.20;101470.00;;;;4972494;28;20197;-76
2022/04/02 03:47:44;;;;;;;2.00;0.93;;;;;8.20;101474.00;;;;4990434;28;20206;-76
2022/04/02 03:50:12;;;;;;;1.23;0.75;;;;;8.20;101473.00;;;;4992156;28;20209;-76
2022/04/02 03:52:40;;;;;;;2.25;0.80;;;;;8.20;101474.00;;;;4979665;28;20202;-76
2022/04/02 03:55:08;;;;;;;3.10;1.02;;;;;8.20;101476.00;;;;4972056;28;20202;-76
2022/04/02 03:57:39;;;;;;;2.45;1.15;;;;;8.20;101482.00;;;;4971414;28;20217;-77
2022/04/02 04:00:08;;;;;;;1.88;1.10;;;;;8.20;101484.00;;;;4971715;28;20202;-76
2022/04/02 04:02:37;;;;;;;1.42;0.85;;;;;8.20;101484.00;;;;4972964;28;20226;-76
2022/04/02 04:05:06;;;;;;;1.42;0.73;;;;;8.20;101488.00;;;;4978969;28;20236;-76
2022/04/02 04:07:34;;;;;;;1.70;0.68;;;;;8.20;101492.00;;;;4971023;28;20728;-76
2022/04/02 04:10:01;;;;;;;1.85;1.15;;;;;8.20;101494.00;;;;4970383;28;20210;-76
2022/04/02 04:12:28;;;;;;;1.70;0.82;;;;;8.20;101496.00;;;;4970916;28;20241;-76
2022/04/02 04:14:57;;;;;;;1.35;0.75;;;;;8.10;101496.00;;;;4969434;28;20205;-76
2022/04/02 04:17:25;;;;;;;2.92;0.93;;;;;8.10;101496.00;;;;4970617;28;20234;-76
2022/04/02 04:19:52;;;;;;;3.78;1.00;;;;;8.10;101504.00;;;;4974540;28;20205;-76
2022/04/02 04:22:20;;;;;;;2.78;1.00;;;;;8.10;101504.00;;;;4991072;28;20225;-76
2022/04/02 04:24:47;;;;;;;1.88;0.93;;;;;8.10;101509.00;;;;4984019;28;20207;-76
2022/04/02 04:27:15;;;;;;;1.30;0.85;;;;;8.10;101505.00;;;;4970856;28;20233;-76
2022/04/02 04:29:43;;;;;;;1.42;0.75;;;;;8.00;101508.00;;;;4970369;28;20198;-76
2022/04/02 04:32:14;;;;;;;1.67;0.98;;;;;8.00;101506.00;;;;4970961;28;20261;-76
2022/04/02 04:34:41;;;;;;;2.35;1.02;;;;;8.00;101511.00;;;;4970706;28;20229;-76
2022/04/02 04:37:09;;;;;;;1.00;0.65;;;;;8.00;101511.00;;;;4984617;28;20209;-76
2022/04/02 04:39:37;;;;;;;1.23;0.90;;;;;8.00;101513.00;;;;4978014;28;20246;-76
2022/04/02 04:42:04;;;;;;;1.73;0.95;;;;;8.00;101515.00;;;;4970941;28;20693;-76
2022/04/02 04:44:32;;;;;;;2.78;1.02;;;;;8.00;101525.00;;;;4970912;28;20210;-76
2022/04/02 04:46:59;;;;;;;0.88;0.70;;;;;8.00;101520.00;;;;4971615;28;20614;-76
2022/04/02 04:49:28;;;;;;;2.30;1.05;;;;;7.90;101520.00;;;;4970905;28;20198;-76
2022/04/02 04:51:55;;;;;;;1.25;0.90;;;;;7.90;101523.00;;;;4970386;28;20631;-77
2022/04/02 04:54:22;;;;;;;1.92;1.08;;;;;7.90;101524.00;;;;4972299;28;20206;-77
2022/04/02 04:56:51;;;;;;;1.88;1.02;;;;;7.90;101526.00;;;;4970684;28;20206;-76
2022/04/02 04:59:18;;;;;;;1.40;0.90;;;;;7.90;101531.00;;;;4970942;28;20230;-76
2022/04/02 05:01:47;;;;;;;1.27;0.93;;;;;7.80;101530.00;;;;4971396;28;20225;-76
2022/04/02 05:04:14;;;;;;;2.35;1.17;;;;;7.90;101524.00;;;;4969459;28;20206;-76
2022/04/02 05:06:43;;;;;;;3.65;0.90;;;;;7.80;101530.00;;;;4961251;28;20197;-77
2022/04/02 05:09:11;;;;;;;1.48;0.93;;;;;7.80;101528.00;;;;4969971;28;20293;-77
2022/04/02 05:11:39;;;;;;;2.22;0.98;;;;;7.80;101523.00;;;;4980998;28;20584;-77
2022/04/02 05:14:06;;;;;;;2.58;1.30;;;;;7.80;101531.00;;;;4969281;28;20202;-77
2022/04/02 05:16:34;;;;;;;1.70;0.90;;;;;7.80;101531.00;;;;4968787;28;20245;-76
2022/04/02 05:19:02;;;;;;;1.27;0.82;;;;;7.80;101540.00;;;;4970698;28;20199;-76
2022/04/02 05:21:29;;;;;;;1.50;1.10;;;;;7.80;101550.00;;;;4969462;28;20187;-76
2022/04/02 05:23:58;;;;;;;2.00;1.05;;;;;7.80;101552.00;;;;4968181;28;20195;-76
2022/04/02 05:26:25;;;;;;;1.10;0.90;;;;;7.80;101552.00;;;;4969546;28;20645;-76
2022/04/02 05:28:54;;;;;;;2.13;1.23;;;;;7.70;101562.00;;;;4972507;28;20924;-76
2022/04/02 05:31:21;;;;;;;2.67;1.30;;;;;7.70;101561.00;;;;4969512;28;20664;-76
2022/04/02 05:33:48;;;;;;;1.95;1.10;;;;;7.70;101557.00;;;;4969682;28;20221;-76
2022/04/02 05:36:15;;;;;;;2.38;1.60;;;;;7.70;101566.00;;;;4969897;28;20203;-77
2022/04/02 05:38:43;;;;;;;1.77;1.20;;;;;7.70;101561.00;;;;4969791;28;20266;-77
2022/04/02 05:41:12;;;;;;;2.25;1.40;;;;;7.70;101565.00;;;;4967985;28;20683;-77
2022/04/02 05:43:39;;;;;;;1.80;1.30;;;;;7.70;101568.00;;;;4968985;28;20226;-76
2022/04/02 05:46:06;;;;;;;1.95;1.50;;;;;7.70;101563.00;;;;4965757;28;20213;-77
2022/04/02 05:48:34;;;;;;;1.85;1.25;;;;;7.80;101572.00;;;;4968765;28;20206;-76
2022/04/02 05:51:01;;;;;;;2.45;1.27;;;;;7.80;101569.00;;;;4966320;28;20605;-74
2022/04/02 05:53:29;;;;;;;3.00;1.63;;;;;7.80;101578.00;;;;4969643;28;20692;-75
2022/04/02 05:55:56;;;;;;;1.35;1.00;;;;;7.80;101573.00;;;;4968702;28;20202;-75
2022/04/02 05:58:25;;;;;;;4.22;1.65;;;;;7.80;101584.00;;;;4969540;28;20217;-74
2022/04/02 06:00:52;;;;;;;1.92;1.23;;;;;7.90;101591.00;;;;4969330;28;20206;-74
2022/04/02 06:03:20;;;;;;;1.45;0.95;;;;;7.90;101585.00;;;;4980127;28;20241;-75
2022/04/02 06:05:48;;;;;;;2.05;1.33;;;;;7.90;101596.00;;;;4969181;28;20239;-74
2022/04/02 06:08:16;;;;;;;1.92;1.33;;;;;8.00;101595.00;;;;4969292;28;20228;-75
2022/04/02 06:10:44;;;;;;;2.97;1.50;;;;;8.00;101601.00;;;;4968392;28;20209;-75
2022/04/02 06:13:11;;;;;;;2.17;1.25;;;;;8.00;101602.00;;;;4970113;28;20241;-75
2022/04/02 06:15:40;;;;;;;1.45;1.08;;;;;8.00;101605.00;;;;4969268;28;20213;-75
2022/04/02 06:18:08;;;;;;;1.48;1.13;;;;;8.10;101607.00;;;;4982186;28;20229;-75
2022/04/02 06:20:35;;;;;;;1.80;1.30;;;;;8.10;101612.00;;;;4981558;28;20203;-76
2022/04/02 06:23:02;;;;;;;3.63;1.63;;;;;8.10;101604.00;;;;4969843;28;20229;-75
2022/04/02 06:25:29;;;;;;;2.72;1.10;;;;;8.20;101612.00;;;;4969557;28;20202;-76
2022/04/02 06:27:57;;;;;;;2.33;1.10;;;;;8.20;101624.00;;;;4969707;28;20209;-75
2022/04/02 06:30:24;;;;;;;3.08;1.75;;;;;8.20;101616.00;;;;4969404;28;20210;-76
2022/04/02 06:32:53;;;;;;;3.47;1.33;;;;;8.20;101622.00;;;;4969012;28;20685;-76
2022/04/02 06:35:20;;;;;;;2.10;1.13;;;;;8.30;101633.00;;;;4969367;28;20198;-76
2022/04/02 06:37:48;;;;;;;3.42;2.00;;;;;8.30;101634.00;;;;4969751;28;20395;-76
2022/04/02 06:40:16;;;;;;;1.83;1.35;;;;;8.40;101634.00;;;;4972577;28;20229;-76
2022/04/02 06:42:43;;;;;;;2.22;0.93;;;;;8.40;101635.00;;;;4972356;28;20225;-76
2022/04/02 06:45:11;;;;;;;1.98;1.00;;;;;8.50;101644.00;;;;4972634;28;20202;-76
2022/04/02 06:47:39;;;;;;;2.10;1.25;;;;;8.50;101641.00;;;;4973041;28;20199;-76
2022/04/02 06:50:11;;;;;;;1.95;1.08;;;;;8.50;101643.00;;;;4974264;28;20198;-76
2022/04/02 06:52:39;;;;;;;2.40;1.45;;;;;8.60;101646.00;;;;4975473;28;20202;-76
2022/04/02 06:55:08;;;;;;;2.17;1.23;;;;;8.60;101641.00;;;;4976496;28;20230;-77
2022/04/02 06:57:42;;;;;;;3.17;1.25;;;;;8.70;101649.00;;;;4972490;28;20198;-75
2022/04/02 07:00:11;;;;;;;3.00;0.95;;;;;8.80;101653.00;;;;4971963;28;20281;-78
2022/04/02 07:02:38;;;;;;;3.40;1.17;;;;;8.80;101654.00;;;;4972770;28;20309;-75
2022/04/02 07:05:08;;;;;;;3.13;1.70;;;;;8.80;101656.00;;;;4975601;28;20204;-76
2022/04/02 07:07:35;;;;;;;1.33;0.88;;;;;8.90;101655.00;;;;4975576;28;20202;-76
2022/04/02 07:10:04;;;;;;;2.05;1.23;;;;;9.00;101653.00;;;;4977059;28;20962;-76
2022/04/02 07:12:31;;;;;;;1.63;1.13;;;;;9.00;101660.00;;;;4983825;28;20209;-76
2022/04/02 07:14:59;;;;;;;3.35;1.38;;;;;9.10;101666.00;;;;4971517;28;20202;-76
2022/04/02 07:17:27;;;;;;;5.13;1.50;;;;;9.10;101660.00;;;;4961152;28;20231;-78
2022/04/02 07:19:57;;;;;;;1.85;1.38;;;;;9.10;101669.00;;;;4973820;28;20206;-79
2022/04/02 07:22:27;;;;;;;1.75;1.20;;;;;9.10;101672.00;;;;4976059;28;20236;-78
2022/04/02 07:24:56;;;;;;;1.45;1.08;;;;;9.20;101667.00;;;;4954238;28;20225;-78
2022/04/02 07:27:26;;;;;;;3.33;1.17;;;;;9.20;101682.00;;;;4969403;28;20202;-78
2022/04/02 07:29:55;;;;;;;2.05;1.35;;;;;9.30;101671.00;;;;4979661;28;20686;-78
2022/04/02 07:32:22;;;;;;;2.03;1.08;;;;;9.30;101682.00;;;;4972436;28;20205;-78
2022/04/02 07:34:50;;;;;;;2.47;1.70;;;;;9.40;101682.00;;;;4972317;28;20195;-79
2022/04/02 07:37:31;;;;;;;3.00;1.45;;;;;9.30;101686.00;;;;4970332;28;20203;-79
2022/04/02 07:40:05;;;;;;;1.55;1.17;;;;;9.40;101695.00;;;;4970196;28;20206;-79
2022/04/02 07:42:38;;;;;;;2.20;1.40;;;;;9.50;101696.00;;;;4972811;28;20205;-79
2022/04/02 07:45:08;;;;;;;2.60;1.73;;;;;9.50;101690.00;;;;4974280;28;20221;-78
2022/04/02 07:47:38;;;;;;;4.68;1.42;;;;;9.60;101703.00;;;;4973846;28;20225;-78
2022/04/02 07:50:07;;;;;;;3.53;1.40;;;;;9.60;101697.00;;;;4973922;28;20683;-78
2022/04/02 07:52:37;;;;;;;2.20;1.60;;;;;9.70;101712.00;;;;4974367;28;20206;-78
2022/04/02 07:55:08;;;;;;;2.75;1.65;;;;;9.70;101710.00;;;;4973024;28;20237;-78
2022/04/02 07:57:39;;;;;;;6.65;1.88;;;;;9.70;101713.00;;;;4972520;28;20202;-79
2022/04/02 08:00:10;;;;;;;5.50;1.35;;;;;9.80;101710.00;;;;4973466;28;20209;-78
2022/04/02 08:02:39;;;;;;;2.80;1.63;;;;;9.90;101712.00;;;;4990758;28;20276;-77
2022/04/02 08:05:10;;;;;;;1.85;1.27;;;;;9.90;101712.00;;;;4968923;28;20549;-77
2022/04/02 08:07:39;;;;;;;3.40;1.83;;;;;10.00;101720.00;;;;4968683;28;20198;-77
2022/04/02 08:10:10;;;;;;;2.25;1.40;;;;;10.10;101727.00;;;;4971450;28;20202;-78
2022/04/02 08:12:38;;;;;;;4.68;2.30;;;;;10.20;101722.00;;;;4972196;28;20210;-78
2022/04/02 08:15:09;;;;;;;2.03;1.45;;;;;10.20;101713.00;;;;4971521;28;20202;-78
2022/04/02 08:17:38;;;;;;;3.03;1.67;;;;;10.30;101723.00;;;;4960383;28;20267;-79
2022/04/02 08:20:06;;;;;;;2.97;1.77;;;;;10.30;101721.00;;;;4982888;28;20206;-80
2022/04/02 08:22:34;;;;;;;3.45;1.60;;;;;10.40;101733.00;;;;4966897;28;20237;-79
2022/04/02 08:25:03;;;;;;;2.65;1.48;;;;;10.50;101725.00;;;;4970418;28;20264;-79
2022/04/02 08:27:35;;;;;;;2.42;1.67;;;;;10.50;101732.00;;;;4970424;28;20206;-79
2022/04/02 08:30:09;;;;;;;3.53;1.98;;;;;10.50;101723.00;;;;4970024;28;20253;-79
2022/04/02 08:32:54;;;;;;;2.25;1.70;;;;;10.50;101725.00;;;;4969954;28;20736;-79
2022/04/02 08:35:25;;;;;;;1.95;1.38;;;;;10.60;101729.00;;;;4969393;28;20199;-78
2022/04/02 08:38:13;;;;;;;3.45;1.90;;;;;10.60;101732.00;;;;4971254;28;20233;-78
2022/04/02 08:41:20;;;;;;;3.58;1.65;;;;;10.60;101745.00;;;;4966464;28;20198;-79
2022/04/02 08:44:19;;;;;;;2.58;1.60;;;;;10.70;101738.00;;;;4972905;28;20237;-78
2022/04/02 08:47:05;;;;;;;1.90;1.63;;;;;10.70;101742.00;;;;4969676;28;20213;-76
2022/04/02 08:49:40;;;;;;;2.28;1.70;;;;;10.80;101741.00;;;;4965190;28;20198;-77
2022/04/02 08:52:22;;;;;;;2.28;1.45;;;;;10.80;101746.00;;;;4975332;28;20208;-78
2022/04/02 08:55:19;;;;;;;2.25;1.85;;;;;10.90;101744.00;;;;4968110;28;20210;-79
2022/04/02 08:58:08;;;;;;;2.22;1.42;;;;;11.00;101734.00;;;;4963862;28;20264;-76
2022/04/02 09:00:43;;;;;;;2.58;1.67;;;;;11.20;101752.00;;;;4968858;28;20206;-75
2022/04/02 09:03:36;;;;;;;2.75;1.65;;;;;11.40;101754.00;;;;4969576;28;20228;-76
2022/04/02 09:06:41;;;;;;;2.45;1.75;;;;;11.50;101752.00;;;;4970263;28;20227;-76
2022/04/02 09:09:16;;;;;;;3.05;1.50;;;;;11.80;101740.00;;;;4933949;28;20610;-76
2022/04/02 09:12:11;;;;;;;3.30;1.70;;;;;11.90;101756.00;;;;4969524;28;20206;-75
2022/04/02 09:15:05;;;;;;;1.45;1.08;;;;;12.00;101767.00;;;;4966775;28;20210;-76
2022/04/02 09:17:39;;;;;;;5.95;1.70;;;;;12.10;101770.00;;;;4962868;28;20226;-76
2022/04/02 09:20:43;;;;;;;2.05;1.45;;;;;12.10;101765.00;;;;4968817;28;20257;-76
2022/04/02 09:23:15;;;;;;;2.08;1.52;;;;;12.30;101773.00;;;;4906811;29;20232;-76
2022/04/02 09:26:15;;;;;;;1.83;1.30;;;;;12.30;101767.00;;;;4960085;28;20282;-77
2022/04/02 09:28:51;;;;;;;3.03;1.70;;;;;12.50;101781.00;;;;4968873;28;20202;-74
2022/04/02 09:31:47;;;;;;;2.25;1.40;;;;;12.50;101789.00;;;;4960733;28;20194;-75
2022/04/02 09:34:59;;;;;;;1.98;1.45;;;;;12.60;101776.00;;;;4967252;28;20761;-75
2022/04/02 09:38:09;;;;;;;2.15;1.13;;;;;12.70;101779.00;;;;4929497;29;20214;-75
2022/04/02 09:40:45;;;;;;;3.20;1.50;;;;;12.80;101775.00;;;;4962911;28;20554;-75
2022/04/02 09:43:25;;;;;;;1.98;1.17;;;;;12.90;101776.00;;;;4973588;28;20220;-75
2022/04/02 09:46:15;;;;;;;4.28;1.33;;;;;12.90;101779.00;;;;4969321;28;20210;-75
2022/04/02 09:48:52;;;;;;;1.77;1.30;;;;;13.00;101780.00;;;;4957200;28;20300;-75
2022/04/02 09:51:26;;;;;;;2.25;1.17;;;;;13.10;101781.00;;;;4980467;28;20716;-74
2022/04/02 09:54:02;;;;;;;3.40;1.45;;;;;13.10;101780.00;;;;4968704;28;20280;-75
2022/04/02 09:56:36;;;;;;;2.45;1.30;;;;;13.20;101778.00;;;;4969049;28;20237;-75
2022/04/02 09:59:06;;;;;;;1.67;1.00;;;;;13.20;101778.00;;;;4961107;28;20289;-74
2022/04/02 10:01:40;;;;;;;2.13;1.13;;;;;13.20;101773.00;;;;4963971;28;20207;-74
2022/04/02 10:04:37;;;;;;;1.70;1.02;;;;;13.20;101771.00;;;;4958557;28;20275;-74
2022/04/02 10:07:14;;;;;;;1.08;0.85;;;;;13.20;101776.00;;;;4961438;28;20708;-74
2022/04/02 10:09:46;;;;;;;1.60;0.90;;;;;13.20;101782.00;;;;4967943;28;20281;-75
2022/04/02 10:12:16;;;;;;;2.10;1.23;;;;;13.10;101781.00;;;;4968546;28;20281;-75
2022/04/02 10:14:43;;;;;;;1.05;0.93;;;;;13.10;101786.00;;;;4968854;28;20209;-74
2022/04/02 10:17:12;;;;;;;3.70;1.35;;;;;13.00;101786.00;;;;4969195;28;20267;-75
2022/04/02 10:19:40;;;;;;;1.77;1.00;;;;;13.00;101779.00;;;;4969453;28;20221;-74
2022/04/02 10:22:16;;;;;;;2.10;1.15;;;;;13.00;101781.00;;;;4969487;28;20197;-74
2022/04/02 10:24:51;;;;;;;2.05;1.27;;;;;13.00;101772.00;;;;4968032;28;20230;-75
2022/04/02 10:27:32;;;;;;;2.13;1.08;;;;;13.00;101775.00;;;;4967475;28;20691;-74
2022/04/02 10:30:05;;;;;;;1.10;0.80;;;;;13.00;101774.00;;;;4965599;28;20194;-75
2022/04/02 10:32:54;;;;;;;3.55;1.20;;;;;13.00;101775.00;;;;4963870;28;20198;-75
2022/04/02 10:35:23;;;;;;;3.17;1.30;;;;;13.10;101775.00;;;;4962950;28;20202;-74
2022/04/02 10:38:11;;;;;;;1.48;1.25;;;;;13.00;101779.00;;;;4963969;28;20199;-74
2022/04/02 10:40:45;;;;;;;3.75;1.50;;;;;13.00;101781.00;;;;4969074;28;20190;-76
2022/04/02 10:43:24;;;;;;;3.33;1.60;;;;;13.00;101773.00;;;;4968421;28;20198;-75
2022/04/02 10:45:51;;;;;;;2.22;1.40;;;;;13.00;101782.00;;;;4968400;28;20210;-75
2022/04/02 10:48:27;;;;;;;2.70;1.35;;;;;12.90;101771.00;;;;4968720;28;20201;-76
2022/04/02 10:50:55;;;;;;;2.50;2.05;;;;;13.00;101776.00;;;;4969551;28;20229;-75
2022/04/02 10:53:25;;;;;;;2.30;1.50;;;;;13.00;101778.00;;;;4968218;28;20286;-76
2022/04/02 10:56:00;;;;;;;3.40;1.10;;;;;12.90;101778.00;;;;4969431;28;20194;-76
2022/04/02 10:58:34;;;;;;;2.45;1.73;;;;;12.90;101778.00;;;;4969005;28;20285;-76
2022/04/02 11:01:05;;;;;;;1.90;1.05;;;;;12.90;101778.00;;;;4969811;28;20206;-76
2022/04/02 11:03:39;;;;;;;2.13;1.10;;;;;12.90;101779.00;;;;4968911;28;20198;-76
2022/04/02 11:06:06;;;;;;;2.55;1.20;;;;;13.00;101781.00;;;;4973266;28;20194;-76
2022/04/02 11:08:35;;;;;;;1.23;0.90;;;;;13.00;101772.00;;;;4977493;28;20190;-77
2022/04/02 11:11:18;;;;;;;1.42;0.82;;;;;12.90;101786.00;;;;4969186;28;20214;-77
2022/04/02 11:13:46;;;;;;;1.38;1.00;;;;;13.10;101786.00;;;;4953964;28;20237;-78
2022/04/02 11:16:23;;;;;;;1.17;0.75;;;;;13.10;101786.00;;;;4967777;28;20273;-77
2022/04/02 11:21:59;;;;;;;1.02;0.80;;;;;13.10;101789.00;;;;4968990;28;20218;-78
2022/04/02 11:24:32;;;;;;;3.40;1.00;;;;;13.10;101793.00;;;;4960901;28;20222;-78
2022/04/02 11:27:02;;;;;;;2.80;1.33;;;;;13.10;101795.00;;;;4966756;28;20194;-77
2022/04/02 11:29:34;;;;;;;1.02;0.65;;;;;13.10;101800.00;;;;4972684;28;20781;-77
2022/04/02 11:32:02;;;;;;;1.70;1.25;;;;;13.10;101800.00;;;;4971850;28;20210;-77
2022/04/02 11:34:35;;;;;;;1.00;0.90;;;;;13.00;101795.00;;;;4972382;28;20202;-77
2022/04/02 11:37:07;;;;;;;1.38;0.90;;;;;13.00;101803.00;;;;4972419;28;20222;-78
2022/04/02 11:39:41;;;;;;;1.52;0.80;;;;;13.00;101795.00;;;;4971253;28;20213;-77
2022/04/02 11:42:13;;;;;;;2.15;0.98;;;;;13.00;101800.00;;;;4972513;28;20197;-78
2022/04/02 11:44:50;;;;;;;5.13;1.20;;;;;13.10;101792.00;;;;4972317;28;20235;-78
2022/04/02 11:47:27;;;;;;;1.02;0.68;;;;;13.10;101794.00;;;;4972322;28;20202;-79
2022/04/02 11:49:55;;;;;;;1.70;1.20;;;;;13.30;101800.00;;;;4980468;28;20198;-78
2022/04/02 11:52:22;;;;;;;2.22;1.20;;;;;13.30;101802.00;;;;4971753;28;20205;-78
2022/04/02 11:55:01;;;;;;;1.83;0.95;;;;;13.30;101801.00;;;;4972287;28;20600;-78
2022/04/02 11:57:28;;;;;;;2.38;1.10;;;;;13.40;101806.00;;;;4971311;28;20595;-78
2022/04/02 11:59:58;;;;;;;1.98;1.05;;;;;13.40;101802.00;;;;4984294;28;20213;-78
2022/04/02 12:02:36;;;;;;;1.60;0.85;;;;;13.40;101804.00;;;;4985133;28;20210;-78
2022/04/02 12:05:05;;;;;;;1.73;0.90;;;;;13.50;101801.00;;;;4971956;28;20230;-78
2022/04/02 12:07:41;;;;;;;1.38;0.70;;;;;13.50;101799.00;;;;4972091;28;20289;-78
2022/04/02 12:10:14;;;;;;;1.52;0.68;;;;;13.60;101797.00;;;;4972146;28;20260;-78
2022/04/02 12:12:46;;;;;;;1.20;0.93;;;;;13.70;101813.00;;;;4971263;28;20214;-78
2022/04/02 12:15:17;;;;;;;1.13;0.93;;;;;13.90;101806.00;;;;4970492;28;20199;-77
2022/04/02 12:17:48;;;;;;;1.08;0.80;;;;;14.00;101801.00;;;;4990183;28;20229;-75
2022/04/02 12:20:26;;;;;;;2.00;1.00;;;;;14.10;101811.00;;;;4973460;28;20524;-77
2022/04/02 12:23:09;;;;;;;1.55;0.88;;;;;14.20;101806.00;;;;4968282;28;20214;-77
2022/04/02 12:25:39;;;;;;;0.95;0.60;;;;;14.40;101804.00;;;;4971474;28;20222;-77
2022/04/02 12:28:12;;;;;;;2.08;1.15;;;;;14.50;101805.00;;;;4971978;28;20636;-77
2022/04/02 12:30:46;;;;;;;1.77;0.98;;;;;14.60;101797.00;;;;4971229;28;20194;-76
2022/04/02 12:33:15;;;;;;;1.00;0.68;;;;;14.70;101794.00;;;;4977426;28;20206;-76
2022/04/02 12:35:47;;;;;;;1.63;0.70;;;;;14.70;101797.00;;;;4980359;28;20210;-76
2022/04/02 12:38:27;;;;;;;1.15;0.70;;;;;14.80;101800.00;;;;4970202;28;20961;-76